sensor_id;sensor_type;location;lat;lon;timestamp;temperature;humidity
20744;DHT22;56303;52.160;-0.428;2024-01-10T00:00:41;1.60;99.90
20744;DHT22;56303;52.160;-0.428;2024-01-10T00:03:15;1.80;99.90
20744;DHT22;56303;52.160;-0.428;2024-01-10T00:05:44;0.60;99.90
20744;DHT22;56303;52.160;-0.428;2024-01-10T00:08:15;1.60;99.90
20744;DHT22;56303;52.160;-0.428;2024-01-10T00:10:48;0.20;99.90
20744;DHT22;56303;52.160;-0.428;2024-01-10T00:13:45;0.20;99.90
20744;DHT22;56303;52.160;-0.428;2024-01-10T00:19:34;1.80;99.90
20744;DHT22;56303;52.160;-0.428;2024-01-10T00:22:27;0.20;99.90
20744;DHT22;56303;52.160;-0.428;2024-01-10T00:25:13;2.00;99.90
20744;DHT22;56303;52.160;-0.428;2024-01-10T00:27:43;1.70;99.90
20744;DHT22;56303;52.160;-0.428;2024-01-10T00:30:15;1.70;99.90
20744;DHT22;56303;52.160;-0.428;2024-01-10T00:32:50;1.00;99.90
20744;DHT22;56303;52.160;-0.428;2024-01-10T00:35:31;0.90;99.90
20744;DHT22;56303;52.160;-0.428;2024-01-10T00:38:01;1.30;99.90
20744;DHT22;56303;52.160;-0.428;2024-01-10T00:40:40;1.50;99.90
20744;DHT22;56303;52.160;-0.428;2024-01-10T00:43:30;-0.40;99.90
20744;DHT22;56303;52.160;-0.428;2024-01-10T00:46:15;3.70;99.90
20744;DHT22;56303;52.160;-0.428;2024-01-10T00:52:48;1.60;99.90
20744;DHT22;56303;52.160;-0.428;2024-01-10T00:55:22;-0.20;99.90
20744;DHT22;56303;52.160;-0.428;2024-01-10T00:58:03;1.40;99.90
20744;DHT22;56303;52.160;-0.428;2024-01-10T01:00:38;0.90;99.90
20744;DHT22;56303;52.160;-0.428;2024-01-10T01:03:12;-0.30;99.90
20744;DHT22;56303;52.160;-0.428;2024-01-10T01:05:56;1.20;99.90
20744;DHT22;56303;52.160;-0.428;2024-01-10T01:08:26;1.40;99.90
20744;DHT22;56303;52.160;-0.428;2024-01-10T01:10:57;1.20;99.90
20744;DHT22;56303;52.160;-0.428;2024-01-10T01:13:38;0.20;99.90
20744;DHT22;56303;52.160;-0.428;2024-01-10T01:16:19;1.70;99.90
20744;DHT22;56303;52.160;-0.428;2024-01-10T01:18:51;2.50;99.90
20744;DHT22;56303;52.160;-0.428;2024-01-10T01:21:20;0.50;99.90
20744;DHT22;56303;52.160;-0.428;2024-01-10T01:23:54;1.80;99.90
20744;DHT22;56303;52.160;-0.428;2024-01-10T01:26:28;3.30;99.90
20744;DHT22;56303;52.160;-0.428;2024-01-10T01:29:00;2.20;99.90
20744;DHT22;56303;52.160;-0.428;2024-01-10T01:31:31;0.00;99.90
20744;DHT22;56303;52.160;-0.428;2024-01-10T01:34:04;1.50;99.90
20744;DHT22;56303;52.160;-0.428;2024-01-10T01:36:47;0.90;99.90
20744;DHT22;56303;52.160;-0.428;2024-01-10T01:39:25;-0.10;99.90
20744;DHT22;56303;52.160;-0.428;2024-01-10T01:41:55;1.70;99.90
20744;DHT22;56303;52.160;-0.428;2024-01-10T01:45:06;1.70;99.90
20744;DHT22;56303;52.160;-0.428;2024-01-10T01:47:38;1.80;99.90
20744;DHT22;56303;52.160;-0.428;2024-01-10T01:53:23;1.60;99.90
20744;DHT22;56303;52.160;-0.428;2024-01-10T01:56:11;3.70;99.90
20744;DHT22;56303;52.160;-0.428;2024-01-10T01:59:05;1.60;99.90
20744;DHT22;56303;52.160;-0.428;2024-01-10T02:01:35;0.80;99.90
20744;DHT22;56303;52.160;-0.428;2024-01-10T02:04:20;0.60;99.90
20744;DHT22;56303;52.160;-0.428;2024-01-10T02:06:54;1.40;99.90
20744;DHT22;56303;52.160;-0.428;2024-01-10T02:09:40;1.30;99.90
20744;DHT22;56303;52.160;-0.428;2024-01-10T02:12:12;3.30;99.90
20744;DHT22;56303;52.160;-0.428;2024-01-10T02:14:41;2.80;99.90
20744;DHT22;56303;52.160;-0.428;2024-01-10T02:17:10;1.60;99.90
20744;DHT22;56303;52.160;-0.428;2024-01-10T02:19:43;1.50;99.90
20744;DHT22;56303;52.160;-0.428;2024-01-10T02:22:25;1.00;99.90
20744;DHT22;56303;52.160;-0.428;2024-01-10T02:25:04;3.00;99.90
20744;DHT22;56303;52.160;-0.428;2024-01-10T02:27:40;1.20;99.90
20744;DHT22;56303;52.160;-0.428;2024-01-10T02:30:12;2.10;99.90
20744;DHT22;56303;52.160;-0.428;2024-01-10T02:32:41;0.60;99.90
20744;DHT22;56303;52.160;-0.428;2024-01-10T02:35:10;1.70;99.90
20744;DHT22;56303;52.160;-0.428;2024-01-10T02:38:08;1.60;99.90
20744;DHT22;56303;52.160;-0.428;2024-01-10T02:40:43;1.80;99.90
20744;DHT22;56303;52.160;-0.428;2024-01-10T02:43:17;1.60;99.90
20744;DHT22;56303;52.160;-0.428;2024-01-10T02:45:52;1.60;99.90
20744;DHT22;56303;52.160;-0.428;2024-01-10T02:48:38;0.20;99.90
20744;DHT22;56303;52.160;-0.428;2024-01-10T02:51:19;1.50;99.90
20744;DHT22;56303;52.160;-0.428;2024-01-10T02:53:47;0.20;99.90
20744;DHT22;56303;52.160;-0.428;2024-01-10T02:56:24;3.00;99.90
20744;DHT22;56303;52.160;-0.428;2024-01-10T02:58:54;1.50;99.90
20744;DHT22;56303;52.160;-0.428;2024-01-10T03:01:23;1.50;99.90
20744;DHT22;56303;52.160;-0.428;2024-01-10T03:03:52;1.70;99.90
20744;DHT22;56303;52.160;-0.428;2024-01-10T03:06:23;2.60;99.90
20744;DHT22;56303;52.160;-0.428;2024-01-10T03:09:03;0.40;99.90
20744;DHT22;56303;52.160;-0.428;2024-01-10T03:11:38;1.50;99.90
20744;DHT22;56303;52.160;-0.428;2024-01-10T03:14:32;1.60;99.90
20744;DHT22;56303;52.160;-0.428;2024-01-10T03:17:09;1.60;99.90
20744;DHT22;56303;52.160;-0.428;2024-01-10T03:19:43;2.00;99.90
20744;DHT22;56303;52.160;-0.428;2024-01-10T03:22:13;1.70;99.90
20744;DHT22;56303;52.160;-0.428;2024-01-10T03:24:43;-0.10;99.90
20744;DHT22;56303;52.160;-0.428;2024-01-10T03:27:19;1.70;99.90
20744;DHT22;56303;52.160;-0.428;2024-01-10T03:29:53;3.10;99.90
20744;DHT22;56303;52.160;-0.428;2024-01-10T03:32:27;0.20;99.90
20744;DHT22;56303;52.160;-0.428;2024-01-10T03:35:02;2.00;99.90
20744;DHT22;56303;52.160;-0.428;2024-01-10T03:37:39;1.40;99.90
20744;DHT22;56303;52.160;-0.428;2024-01-10T03:40:14;1.80;99.90
20744;DHT22;56303;52.160;-0.428;2024-01-10T03:42:42;1.80;99.90
20744;DHT22;56303;52.160;-0.428;2024-01-10T03:45:27;3.70;99.90
20744;DHT22;56303;52.160;-0.428;2024-01-10T03:48:03;3.20;99.90
20744;DHT22;56303;52.160;-0.428;2024-01-10T03:50:54;0.50;99.90
20744;DHT22;56303;52.160;-0.428;2024-01-10T03:53:28;1.80;99.90
20744;DHT22;56303;52.160;-0.428;2024-01-10T03:56:16;2.20;99.90
20744;DHT22;56303;52.160;-0.428;2024-01-10T03:58:45;1.70;99.90
20744;DHT22;56303;52.160;-0.428;2024-01-10T04:01:21;1.60;99.90
20744;DHT22;56303;52.160;-0.428;2024-01-10T04:03:49;1.30;99.90
20744;DHT22;56303;52.160;-0.428;2024-01-10T04:06:25;1.80;99.90
20744;DHT22;56303;52.160;-0.428;2024-01-10T04:09:01;0.50;99.90
20744;DHT22;56303;52.160;-0.428;2024-01-10T04:11:34;1.70;99.90
20744;DHT22;56303;52.160;-0.428;2024-01-10T04:14:02;2.00;99.90
20744;DHT22;56303;52.160;-0.428;2024-01-10T04:16:55;1.90;99.90
20744;DHT22;56303;52.160;-0.428;2024-01-10T04:19:29;-0.30;99.90
20744;DHT22;56303;52.160;-0.428;2024-01-10T04:21:57;1.80;99.90
20744;DHT22;56303;52.160;-0.428;2024-01-10T04:24:29;1.90;99.90
20744;DHT22;56303;52.160;-0.428;2024-01-10T04:27:01;0.40;99.90
20744;DHT22;56303;52.160;-0.428;2024-01-10T04:29:41;2.80;99.90
20744;DHT22;56303;52.160;-0.428;2024-01-10T04:32:30;0.50;99.90
20744;DHT22;56303;52.160;-0.428;2024-01-10T04:35:08;2.70;99.90
20744;DHT22;56303;52.160;-0.428;2024-01-10T04:37:41;0.30;99.90
20744;DHT22;56303;52.160;-0.428;2024-01-10T04:40:17;1.80;99.90
20744;DHT22;56303;52.160;-0.428;2024-01-10T04:46:27;1.80;99.90
20744;DHT22;56303;52.160;-0.428;2024-01-10T04:49:14;1.80;99.90
20744;DHT22;56303;52.160;-0.428;2024-01-10T04:51:44;1.90;99.90
20744;DHT22;56303;52.160;-0.428;2024-01-10T04:54:20;1.00;99.90
20744;DHT22;56303;52.160;-0.428;2024-01-10T04:57:17;1.90;99.90
20744;DHT22;56303;52.160;-0.428;2024-01-10T05:00:11;1.80;99.90
20744;DHT22;56303;52.160;-0.428;2024-01-10T05:02:56;1.20;99.90
20744;DHT22;56303;52.160;-0.428;2024-01-10T05:05:33;1.00;99.90
20744;DHT22;56303;52.160;-0.428;2024-01-10T05:08:16;0.50;99.90
20744;DHT22;56303;52.160;-0.428;2024-01-10T05:10:57;2.00;99.90
20744;DHT22;56303;52.160;-0.428;2024-01-10T05:13:27;1.90;99.90
20744;DHT22;56303;52.160;-0.428;2024-01-10T05:16:09;1.60;99.90
20744;DHT22;56303;52.160;-0.428;2024-01-10T05:18:45;1.80;99.90
20744;DHT22;56303;52.160;-0.428;2024-01-10T05:21:21;0.90;99.90
20744;DHT22;56303;52.160;-0.428;2024-01-10T05:24:07;1.80;99.90
20744;DHT22;56303;52.160;-0.428;2024-01-10T05:27:12;3.60;99.90
20744;DHT22;56303;52.160;-0.428;2024-01-10T05:29:41;0.90;99.90
20744;DHT22;56303;52.160;-0.428;2024-01-10T05:32:12;2.10;99.90
20744;DHT22;56303;52.160;-0.428;2024-01-10T05:34:40;2.50;99.90
20744;DHT22;56303;52.160;-0.428;2024-01-10T05:37:08;0.30;99.90
20744;DHT22;56303;52.160;-0.428;2024-01-10T05:39:38;2.80;99.90
20744;DHT22;56303;52.160;-0.428;2024-01-10T05:42:07;2.40;99.90
20744;DHT22;56303;52.160;-0.428;2024-01-10T05:44:38;1.00;99.90
20744;DHT22;56303;52.160;-0.428;2024-01-10T05:47:10;0.60;99.90
20744;DHT22;56303;52.160;-0.428;2024-01-10T05:49:42;1.50;99.90
20744;DHT22;56303;52.160;-0.428;2024-01-10T05:52:11;2.10;99.90
20744;DHT22;56303;52.160;-0.428;2024-01-10T05:54:40;2.00;99.90
20744;DHT22;56303;52.160;-0.428;2024-01-10T05:57:11;2.60;99.90
20744;DHT22;56303;52.160;-0.428;2024-01-10T05:59:39;1.20;99.90
20744;DHT22;56303;52.160;-0.428;2024-01-10T06:02:08;1.90;99.90
20744;DHT22;56303;52.160;-0.428;2024-01-10T06:04:37;1.00;99.90
20744;DHT22;56303;52.160;-0.428;2024-01-10T06:07:06;2.20;99.90
20744;DHT22;56303;52.160;-0.428;2024-01-10T06:09:47;2.00;99.90
20744;DHT22;56303;52.160;-0.428;2024-01-10T06:12:37;1.90;99.90
20744;DHT22;56303;52.160;-0.428;2024-01-10T06:15:10;1.60;99.90
20744;DHT22;56303;52.160;-0.428;2024-01-10T06:17:40;2.00;99.90
20744;DHT22;56303;52.160;-0.428;2024-01-10T06:20:14;3.50;99.90
20744;DHT22;56303;52.160;-0.428;2024-01-10T06:22:44;1.30;99.90
20744;DHT22;56303;52.160;-0.428;2024-01-10T06:25:30;1.80;99.90
20744;DHT22;56303;52.160;-0.428;2024-01-10T06:27:58;0.90;99.90
20744;DHT22;56303;52.160;-0.428;2024-01-10T06:34:27;0.40;99.90
20744;DHT22;56303;52.160;-0.428;2024-01-10T06:37:58;3.90;99.90
20744;DHT22;56303;52.160;-0.428;2024-01-10T06:40:39;1.90;99.90
20744;DHT22;56303;52.160;-0.428;2024-01-10T06:43:31;1.70;99.90
20744;DHT22;56303;52.160;-0.428;2024-01-10T06:46:09;1.90;99.90
20744;DHT22;56303;52.160;-0.428;2024-01-10T06:48:43;2.40;99.90
20744;DHT22;56303;52.160;-0.428;2024-01-10T06:51:20;1.80;99.90
20744;DHT22;56303;52.160;-0.428;2024-01-10T06:53:57;2.10;99.90
20744;DHT22;56303;52.160;-0.428;2024-01-10T06:56:46;0.80;99.90
20744;DHT22;56303;52.160;-0.428;2024-01-10T06:59:17;2.70;99.90
20744;DHT22;56303;52.160;-0.428;2024-01-10T07:02:02;2.20;99.90
20744;DHT22;56303;52.160;-0.428;2024-01-10T07:04:36;0.70;99.90
20744;DHT22;56303;52.160;-0.428;2024-01-10T07:07:16;2.50;99.90
20744;DHT22;56303;52.160;-0.428;2024-01-10T07:09:46;2.20;99.90
20744;DHT22;56303;52.160;-0.428;2024-01-10T07:12:14;2.30;99.90
20744;DHT22;56303;52.160;-0.428;2024-01-10T07:14:46;2.40;99.90
20744;DHT22;56303;52.160;-0.428;2024-01-10T08:15:26;2.00;99.90
20744;DHT22;56303;52.160;-0.428;2024-01-10T08:29:12;2.30;99.90
20744;DHT22;56303;52.160;-0.428;2024-01-10T09:10:33;2.90;99.90
20744;DHT22;56303;52.160;-0.428;2024-01-10T09:13:00;3.40;99.90
20744;DHT22;56303;52.160;-0.428;2024-01-10T09:15:27;2.90;99.90
20744;DHT22;56303;52.160;-0.428;2024-01-10T09:17:54;2.80;99.90
20744;DHT22;56303;52.160;-0.428;2024-01-10T09:20:21;2.80;99.90
20744;DHT22;56303;52.160;-0.428;2024-01-10T09:22:48;2.70;99.90
20744;DHT22;56303;52.160;-0.428;2024-01-10T09:25:16;2.70;99.90
20744;DHT22;56303;52.160;-0.428;2024-01-10T09:27:43;2.70;99.90
20744;DHT22;56303;52.160;-0.428;2024-01-10T09:30:12;2.70;99.90
20744;DHT22;56303;52.160;-0.428;2024-01-10T09:32:39;2.70;99.90
20744;DHT22;56303;52.160;-0.428;2024-01-10T09:35:06;2.60;99.90
20744;DHT22;56303;52.160;-0.428;2024-01-10T09:37:34;2.70;99.90
20744;DHT22;56303;52.160;-0.428;2024-01-10T09:40:02;2.80;99.90
20744;DHT22;56303;52.160;-0.428;2024-01-10T09:42:30;3.00;99.90
20744;DHT22;56303;52.160;-0.428;2024-01-10T09:45:00;2.80;99.90
20744;DHT22;56303;52.160;-0.428;2024-01-10T09:47:27;2.90;99.90
20744;DHT22;56303;52.160;-0.428;2024-01-10T09:49:55;3.00;99.90
20744;DHT22;56303;52.160;-0.428;2024-01-10T09:52:28;3.20;99.90
20744;DHT22;56303;52.160;-0.428;2024-01-10T09:54:57;3.30;99.90
20744;DHT22;56303;52.160;-0.428;2024-01-10T09:57:24;3.10;99.90
20744;DHT22;56303;52.160;-0.428;2024-01-10T09:59:53;3.10;99.90
20744;DHT22;56303;52.160;-0.428;2024-01-10T10:02:23;3.10;99.90
20744;DHT22;56303;52.160;-0.428;2024-01-10T10:07:26;3.30;99.90
20744;DHT22;56303;52.160;-0.428;2024-01-10T10:09:54;3.50;99.90
20744;DHT22;56303;52.160;-0.428;2024-01-10T10:12:48;3.60;99.90
20744;DHT22;56303;52.160;-0.428;2024-01-10T10:15:19;3.70;99.90
20744;DHT22;56303;52.160;-0.428;2024-01-10T10:17:47;3.80;99.90
20744;DHT22;56303;52.160;-0.428;2024-01-10T10:20:24;4.00;99.90
20744;DHT22;56303;52.160;-0.428;2024-01-10T10:23:00;4.10;99.90
20744;DHT22;56303;52.160;-0.428;2024-01-10T10:28:01;3.90;99.90
20744;DHT22;56303;52.160;-0.428;2024-01-10T10:30:30;4.10;99.90
20744;DHT22;56303;52.160;-0.428;2024-01-10T10:32:58;4.10;99.90
20744;DHT22;56303;52.160;-0.428;2024-01-10T10:35:25;4.30;99.90
20744;DHT22;56303;52.160;-0.428;2024-01-10T10:38:07;4.40;99.90
20744;DHT22;56303;52.160;-0.428;2024-01-10T10:40:36;4.40;99.90
20744;DHT22;56303;52.160;-0.428;2024-01-10T10:43:04;4.60;99.90
20744;DHT22;56303;52.160;-0.428;2024-01-10T10:45:33;4.50;99.90
20744;DHT22;56303;52.160;-0.428;2024-01-10T10:48:01;4.40;99.90
20744;DHT22;56303;52.160;-0.428;2024-01-10T10:50:33;4.70;99.90
20744;DHT22;56303;52.160;-0.428;2024-01-10T10:53:03;4.60;99.90
20744;DHT22;56303;52.160;-0.428;2024-01-10T10:55:31;4.50;99.90
20744;DHT22;56303;52.160;-0.428;2024-01-10T10:58:01;4.60;99.90
20744;DHT22;56303;52.160;-0.428;2024-01-10T11:00:38;4.70;99.90
20744;DHT22;56303;52.160;-0.428;2024-01-10T11:03:09;5.00;99.90
20744;DHT22;56303;52.160;-0.428;2024-01-10T11:05:40;4.90;99.90
20744;DHT22;56303;52.160;-0.428;2024-01-10T11:08:11;5.00;99.90
20744;DHT22;56303;52.160;-0.428;2024-01-10T11:10:40;5.10;99.90
20744;DHT22;56303;52.160;-0.428;2024-01-10T11:21:56;5.20;99.90
20744;DHT22;56303;52.160;-0.428;2024-01-10T11:24:27;5.30;99.90
20744;DHT22;56303;52.160;-0.428;2024-01-10T11:27:14;5.20;99.90
20744;DHT22;56303;52.160;-0.428;2024-01-10T11:29:42;5.30;99.90
20744;DHT22;56303;52.160;-0.428;2024-01-10T11:32:22;5.50;99.90
20744;DHT22;56303;52.160;-0.428;2024-01-10T11:34:55;5.60;99.90
20744;DHT22;56303;52.160;-0.428;2024-01-10T11:37:22;5.70;99.90
20744;DHT22;56303;52.160;-0.428;2024-01-10T11:39:51;5.70;99.90
20744;DHT22;56303;52.160;-0.428;2024-01-10T11:42:22;5.90;99.90
20744;DHT22;56303;52.160;-0.428;2024-01-10T11:44:51;6.00;99.90
20744;DHT22;56303;52.160;-0.428;2024-01-10T11:47:21;5.90;99.90
20744;DHT22;56303;52.160;-0.428;2024-01-10T11:49:58;6.30;99.90
20744;DHT22;56303;52.160;-0.428;2024-01-10T11:52:32;6.90;99.90
20744;DHT22;56303;52.160;-0.428;2024-01-10T11:55:01;6.70;99.90
20744;DHT22;56303;52.160;-0.428;2024-01-10T11:57:29;6.80;99.90
20744;DHT22;56303;52.160;-0.428;2024-01-10T11:59:59;6.70;99.90
20744;DHT22;56303;52.160;-0.428;2024-01-10T12:02:28;7.20;99.90
20744;DHT22;56303;52.160;-0.428;2024-01-10T12:04:56;7.50;99.90
20744;DHT22;56303;52.160;-0.428;2024-01-10T12:07:23;7.40;99.90
20744;DHT22;56303;52.160;-0.428;2024-01-10T12:09:51;7.40;99.90
20744;DHT22;56303;52.160;-0.428;2024-01-10T12:12:18;7.30;99.90
20744;DHT22;56303;52.160;-0.428;2024-01-10T12:14:46;7.20;99.90
20744;DHT22;56303;52.160;-0.428;2024-01-10T12:17:13;7.20;99.90
20744;DHT22;56303;52.160;-0.428;2024-01-10T12:19:41;7.40;99.90
20744;DHT22;56303;52.160;-0.428;2024-01-10T12:22:13;7.60;99.90
20744;DHT22;56303;52.160;-0.428;2024-01-10T12:24:44;7.70;99.90
20744;DHT22;56303;52.160;-0.428;2024-01-10T12:27:19;7.50;99.90
20744;DHT22;56303;52.160;-0.428;2024-01-10T12:29:49;7.50;99.90
20744;DHT22;56303;52.160;-0.428;2024-01-10T12:32:22;7.70;99.90
20744;DHT22;56303;52.160;-0.428;2024-01-10T12:34:59;8.00;99.90
20744;DHT22;56303;52.160;-0.428;2024-01-10T12:37:27;8.00;99.90
20744;DHT22;56303;52.160;-0.428;2024-01-10T12:39:53;8.50;99.90
20744;DHT22;56303;52.160;-0.428;2024-01-10T12:42:21;9.10;99.90
20744;DHT22;56303;52.160;-0.428;2024-01-10T12:44:48;9.20;99.90
20744;DHT22;56303;52.160;-0.428;2024-01-10T12:47:19;9.30;99.90
20744;DHT22;56303;52.160;-0.428;2024-01-10T12:49:47;9.10;99.90
20744;DHT22;56303;52.160;-0.428;2024-01-10T12:52:14;8.20;99.90
20744;DHT22;56303;52.160;-0.428;2024-01-10T12:54:46;8.20;99.90
20744;DHT22;56303;52.160;-0.428;2024-01-10T12:57:14;8.50;99.90
20744;DHT22;56303;52.160;-0.428;2024-01-10T12:59:40;8.70;99.90
20744;DHT22;56303;52.160;-0.428;2024-01-10T13:02:07;8.70;99.90
20744;DHT22;56303;52.160;-0.428;2024-01-10T13:04:35;8.90;99.90
20744;DHT22;56303;52.160;-0.428;2024-01-10T13:07:02;9.20;99.90
20744;DHT22;56303;52.160;-0.428;2024-01-10T13:09:29;9.40;99.90
20744;DHT22;56303;52.160;-0.428;2024-01-10T13:11:56;9.50;99.90
20744;DHT22;56303;52.160;-0.428;2024-01-10T13:14:23;8.90;99.90
20744;DHT22;56303;52.160;-0.428;2024-01-10T13:16:50;9.30;99.90
20744;DHT22;56303;52.160;-0.428;2024-01-10T13:19:25;9.80;99.90
20744;DHT22;56303;52.160;-0.428;2024-01-10T13:21:53;8.90;99.90
20744;DHT22;56303;52.160;-0.428;2024-01-10T13:24:20;9.00;99.90
20744;DHT22;56303;52.160;-0.428;2024-01-10T13:26:47;8.80;99.90
20744;DHT22;56303;52.160;-0.428;2024-01-10T13:29:15;9.90;99.90
20744;DHT22;56303;52.160;-0.428;2024-01-10T13:31:43;9.10;99.90
20744;DHT22;56303;52.160;-0.428;2024-01-10T13:34:10;8.80;99.90
20744;DHT22;56303;52.160;-0.428;2024-01-10T13:36:38;8.60;99.90
20744;DHT22;56303;52.160;-0.428;2024-01-10T13:39:05;8.80;99.90
20744;DHT22;56303;52.160;-0.428;2024-01-10T13:41:34;9.10;99.90
20744;DHT22;56303;52.160;-0.428;2024-01-10T13:44:01;8.20;99.90
20744;DHT22;56303;52.160;-0.428;2024-01-10T13:46:28;8.10;99.90
20744;DHT22;56303;52.160;-0.428;2024-01-10T13:48:55;8.50;99.90
20744;DHT22;56303;52.160;-0.428;2024-01-10T13:51:22;8.40;99.90
20744;DHT22;56303;52.160;-0.428;2024-01-10T13:53:49;9.00;99.90
20744;DHT22;56303;52.160;-0.428;2024-01-10T13:56:16;9.00;99.90
20744;DHT22;56303;52.160;-0.428;2024-01-10T13:58:43;9.80;99.90
20744;DHT22;56303;52.160;-0.428;2024-01-10T14:01:10;9.70;99.90
20744;DHT22;56303;52.160;-0.428;2024-01-10T14:03:37;9.40;99.90
20744;DHT22;56303;52.160;-0.428;2024-01-10T14:06:04;8.70;99.90
20744;DHT22;56303;52.160;-0.428;2024-01-10T14:08:34;8.30;99.90
20744;DHT22;56303;52.160;-0.428;2024-01-10T14:11:04;8.10;99.90
20744;DHT22;56303;52.160;-0.428;2024-01-10T14:13:31;8.70;99.90
20744;DHT22;56303;52.160;-0.428;2024-01-10T14:15:58;8.40;99.90
20744;DHT22;56303;52.160;-0.428;2024-01-10T14:18:25;8.60;99.90
20744;DHT22;56303;52.160;-0.428;2024-01-10T14:20:52;8.60;99.90
20744;DHT22;56303;52.160;-0.428;2024-01-10T14:23:19;8.80;99.90
20744;DHT22;56303;52.160;-0.428;2024-01-10T14:25:47;8.90;99.90
20744;DHT22;56303;52.160;-0.428;2024-01-10T14:28:14;8.70;99.90
20744;DHT22;56303;52.160;-0.428;2024-01-10T14:30:41;8.70;99.90
20744;DHT22;56303;52.160;-0.428;2024-01-10T14:33:08;7.80;99.90
20744;DHT22;56303;52.160;-0.428;2024-01-10T14:35:36;7.90;99.90
20744;DHT22;56303;52.160;-0.428;2024-01-10T14:38:03;8.30;99.90
20744;DHT22;56303;52.160;-0.428;2024-01-10T14:40:30;8.40;99.90
20744;DHT22;56303;52.160;-0.428;2024-01-10T14:42:57;7.80;99.90
20744;DHT22;56303;52.160;-0.428;2024-01-10T14:45:24;7.90;99.90
20744;DHT22;56303;52.160;-0.428;2024-01-10T14:47:52;7.70;99.90
20744;DHT22;56303;52.160;-0.428;2024-01-10T14:50:19;7.80;99.90
20744;DHT22;56303;52.160;-0.428;2024-01-10T14:52:47;7.70;99.90
20744;DHT22;56303;52.160;-0.428;2024-01-10T14:55:15;7.20;99.90
20744;DHT22;56303;52.160;-0.428;2024-01-10T14:57:41;7.60;99.90
20744;DHT22;56303;52.160;-0.428;2024-01-10T15:00:09;7.70;99.90
20744;DHT22;56303;52.160;-0.428;2024-01-10T15:02:37;7.60;99.90
20744;DHT22;56303;52.160;-0.428;2024-01-10T15:05:05;7.60;99.90
20744;DHT22;56303;52.160;-0.428;2024-01-10T15:07:33;7.60;99.90
20744;DHT22;56303;52.160;-0.428;2024-01-10T15:10:00;7.30;99.90
20744;DHT22;56303;52.160;-0.428;2024-01-10T15:12:30;7.80;99.90
20744;DHT22;56303;52.160;-0.428;2024-01-10T15:14:57;7.70;99.90
20744;DHT22;56303;52.160;-0.428;2024-01-10T15:17:27;7.70;99.90
20744;DHT22;56303;52.160;-0.428;2024-01-10T15:19:54;7.60;99.90
20744;DHT22;56303;52.160;-0.428;2024-01-10T15:22:21;7.60;99.90
20744;DHT22;56303;52.160;-0.428;2024-01-10T15:24:48;6.70;99.90
20744;DHT22;56303;52.160;-0.428;2024-01-10T15:27:15;7.80;99.90
20744;DHT22;56303;52.160;-0.428;2024-01-10T15:29:42;7.80;99.90
20744;DHT22;56303;52.160;-0.428;2024-01-10T15:32:11;7.50;99.90
20744;DHT22;56303;52.160;-0.428;2024-01-10T15:34:39;7.40;99.90
20744;DHT22;56303;52.160;-0.428;2024-01-10T15:37:06;7.30;99.90
20744;DHT22;56303;52.160;-0.428;2024-01-10T15:39:33;7.20;99.90
20744;DHT22;56303;52.160;-0.428;2024-01-10T15:42:00;6.80;99.90
20744;DHT22;56303;52.160;-0.428;2024-01-10T15:44:28;6.90;99.90
20744;DHT22;56303;52.160;-0.428;2024-01-10T15:46:56;6.50;99.90
20744;DHT22;56303;52.160;-0.428;2024-01-10T15:49:24;6.20;99.90
20744;DHT22;56303;52.160;-0.428;2024-01-10T15:51:51;6.10;99.90
20744;DHT22;56303;52.160;-0.428;2024-01-10T15:54:18;6.00;99.90
20744;DHT22;56303;52.160;-0.428;2024-01-10T15:56:45;5.60;99.90
20744;DHT22;56303;52.160;-0.428;2024-01-10T15:59:12;5.50;99.90
20744;DHT22;56303;52.160;-0.428;2024-01-10T16:01:39;5.40;99.90
20744;DHT22;56303;52.160;-0.428;2024-01-10T16:04:06;5.00;99.90
20744;DHT22;56303;52.160;-0.428;2024-01-10T16:06:34;4.80;99.90
20744;DHT22;56303;52.160;-0.428;2024-01-10T16:09:02;4.60;99.90
20744;DHT22;56303;52.160;-0.428;2024-01-10T16:11:31;4.50;99.90
20744;DHT22;56303;52.160;-0.428;2024-01-10T16:13:58;4.30;99.90
20744;DHT22;56303;52.160;-0.428;2024-01-10T16:16:34;4.20;99.90
20744;DHT22;56303;52.160;-0.428;2024-01-10T16:19:03;4.20;99.90
20744;DHT22;56303;52.160;-0.428;2024-01-10T16:21:32;4.20;99.90
20744;DHT22;56303;52.160;-0.428;2024-01-10T16:23:59;4.10;99.90
20744;DHT22;56303;52.160;-0.428;2024-01-10T16:26:26;4.20;99.90
20744;DHT22;56303;52.160;-0.428;2024-01-10T16:28:53;4.10;99.90
20744;DHT22;56303;52.160;-0.428;2024-01-10T16:31:20;4.00;99.90
20744;DHT22;56303;52.160;-0.428;2024-01-10T16:33:47;4.20;99.90
20744;DHT22;56303;52.160;-0.428;2024-01-10T16:36:14;3.90;99.90
20744;DHT22;56303;52.160;-0.428;2024-01-10T16:38:41;4.00;99.90
20744;DHT22;56303;52.160;-0.428;2024-01-10T16:41:08;3.90;99.90
20744;DHT22;56303;52.160;-0.428;2024-01-10T16:43:35;3.80;99.90
20744;DHT22;56303;52.160;-0.428;2024-01-10T16:46:02;3.70;99.90
20744;DHT22;56303;52.160;-0.428;2024-01-10T16:48:29;3.70;99.90
20744;DHT22;56303;52.160;-0.428;2024-01-10T16:50:56;3.60;99.90
20744;DHT22;56303;52.160;-0.428;2024-01-10T16:53:23;3.70;99.90
20744;DHT22;56303;52.160;-0.428;2024-01-10T16:55:52;3.80;99.90
20744;DHT22;56303;52.160;-0.428;2024-01-10T16:58:20;3.50;99.90
20744;DHT22;56303;52.160;-0.428;2024-01-10T17:00:47;3.60;99.90
20744;DHT22;56303;52.160;-0.428;2024-01-10T17:03:15;3.60;99.90
20744;DHT22;56303;52.160;-0.428;2024-01-10T17:05:42;3.50;99.90
20744;DHT22;56303;52.160;-0.428;2024-01-10T17:08:11;3.40;99.90
20744;DHT22;56303;52.160;-0.428;2024-01-10T17:10:38;3.40;99.90
20744;DHT22;56303;52.160;-0.428;2024-01-10T17:13:05;3.50;99.90
20744;DHT22;56303;52.160;-0.428;2024-01-10T17:15:32;3.40;99.90
20744;DHT22;56303;52.160;-0.428;2024-01-10T17:18:00;3.30;99.90
20744;DHT22;56303;52.160;-0.428;2024-01-10T17:20:27;3.20;99.90
20744;DHT22;56303;52.160;-0.428;2024-01-10T17:22:55;3.20;99.90
20744;DHT22;56303;52.160;-0.428;2024-01-10T17:25:22;3.30;99.90
20744;DHT22;56303;52.160;-0.428;2024-01-10T17:27:51;3.20;99.90
20744;DHT22;56303;52.160;-0.428;2024-01-10T17:30:19;3.30;99.90
20744;DHT22;56303;52.160;-0.428;2024-01-10T17:32:47;3.10;99.90
20744;DHT22;56303;52.160;-0.428;2024-01-10T17:35:15;3.30;99.90
20744;DHT22;56303;52.160;-0.428;2024-01-10T17:37:44;3.10;99.90
20744;DHT22;56303;52.160;-0.428;2024-01-10T17:40:12;3.10;99.90
20744;DHT22;56303;52.160;-0.428;2024-01-10T17:42:40;3.10;99.90
20744;DHT22;56303;52.160;-0.428;2024-01-10T17:45:07;3.20;99.90
20744;DHT22;56303;52.160;-0.428;2024-01-10T17:47:34;3.20;99.90
20744;DHT22;56303;52.160;-0.428;2024-01-10T17:50:03;2.50;99.90
20744;DHT22;56303;52.160;-0.428;2024-01-10T17:52:30;3.00;99.90
20744;DHT22;56303;52.160;-0.428;2024-01-10T17:54:57;3.10;99.90
20744;DHT22;56303;52.160;-0.428;2024-01-10T17:57:24;3.30;99.90
20744;DHT22;56303;52.160;-0.428;2024-01-10T17:59:54;3.20;99.90
20744;DHT22;56303;52.160;-0.428;2024-01-10T18:02:22;3.10;99.90
20744;DHT22;56303;52.160;-0.428;2024-01-10T18:04:50;3.00;99.90
20744;DHT22;56303;52.160;-0.428;2024-01-10T18:07:17;3.10;99.90
20744;DHT22;56303;52.160;-0.428;2024-01-10T18:09:44;3.00;99.90
20744;DHT22;56303;52.160;-0.428;2024-01-10T18:12:11;2.10;99.90
20744;DHT22;56303;52.160;-0.428;2024-01-10T18:14:38;3.10;99.90
20744;DHT22;56303;52.160;-0.428;2024-01-10T18:17:05;3.20;99.90
20744;DHT22;56303;52.160;-0.428;2024-01-10T18:19:32;3.10;99.90